Aviation Digital Data Service (ADDS)

Output produced by METARs form (1322 UTC 21 August 2019)
found at http://www.aviationweather.gov/metar/data/
 
KEWR 211318Z 2113/2218 17005KT P6SM SCT008 SCT140 BKN250 
     TEMPO 2113/2114 BKN009 
     FM211400 19010KT P6SM SCT020 BKN050 
     FM211800 20014G20KT P6SM VCTS SCT020 BKN050CB BKN100 
     TEMPO 2120/2123 4SM TSRA SCT020 BKN050CB 
     FM212300 20013KT P6SM VCTS SCT020 BKN050CB 
     FM220200 24010KT P6SM FEW030 BKN050 
     FM220400 24006KT P6SM FEW030 BKN250 
     FM221100 27007KT P6SM FEW030 BKN250 
     FM221500 25010KT P6SM SCT040 BKN250